EST,Max TemperatureF,Mean TemperatureF,Min TemperatureF,Max Dew PointF,MeanDew PointF,Min DewpointF,Max Humidity, Mean Humidity, Min Humidity, Max Sea Level PressureIn, Mean Sea Level PressureIn, Min Sea Level PressureIn, Max VisibilityMiles, Mean VisibilityMiles, Min VisibilityMiles, Max Wind SpeedMPH, Mean Wind SpeedMPH, Max Gust SpeedMPH,PrecipitationIn, CloudCover, Events, WindDirDegrees
2012-12-1,62,49,35,50,41,32,92,77,61,30.21,30.07,29.85,10,6,2,28,11,37,0.04,6,Rain,137
2012-12-2,60,48,36,50,43,34,92,82,72,30.10,29.99,29.85,10,5,0,30,13,40,0.27,6,Fog-Rain-Thunderstorm,247
2012-12-3,67,51,35,59,50,34,96,82,68,30.09,29.97,29.80,10,4,0,33,6,43,0.00,7,Fog,150
2012-12-4,65,52,39,55,40,27,77,65,53,30.21,30.02,29.85,10,10,5,31,15,41,0.03,3,Rain,278
2012-12-5,39,33,27,24,20,18,75,61,47,30.45,30.37,30.26,10,10,10,14,6,20,0.00,2,,63
2012-12-6,44,36,28,34,27,21,75,66,57,30.28,30.10,29.94,10,10,10,16,9,21,0.00,4,,156
2012-12-7,48,45,42,41,37,34,83,74,65,29.97,29.93,29.89,10,8,5,7,3,10,0.04,8,Rain,325
2012-12-8,44,37,30,38,32,27,89,80,70,30.18,29.98,29.86,10,8,2,13,6,17,0.20,6,Rain-Snow,40
2012-12-9,37,35,33,32,30,26,96,86,75,30.17,29.91,29.67,10,6,2,18,9,24,0.24,8,Rain-Snow,80
2012-12-10,42,37,31,37,31,20,96,80,63,29.92,29.71,29.62,10,7,0,23,6,29,0.10,8,Fog-Rain-Snow,7
2012-12-11,37,33,29,27,23,20,85,69,52,30.11,29.99,29.92,10,8,2,24,6,30,0.01,8,Snow,201
2012-12-12,45,40,35,31,27,24,70,58,45,30.32,30.24,30.11,10,10,10,26,15,32,T,4,,213
2012-12-13,50,41,32,34,26,21,72,53,34,30.31,30.23,30.13,10,10,10,26,11,33,0.00,0,,196
2012-12-14,51,41,30,35,31,25,89,71,52,30.24,30.18,30.13,10,10,9,17,5,22,0.00,0,,127
2012-12-15,51,42,33,47,37,29,93,78,62,30.11,29.80,29.60,10,7,2,20,9,24,0.42,6,Rain,128
2012-12-16,51,47,42,47,42,37,89,83,76,29.69,29.62,29.58,10,9,5,22,13,26,0.11,8,Rain,243
2012-12-17,43,39,34,36,32,26,82,72,62,29.73,29.70,29.66,10,10,10,14,7,17,0.00,8,,281
2012-12-18,42,36,30,34,30,26,92,79,65,29.80,29.73,29.67,10,8,2,12,2,16,0.04,7,Rain-Snow,107
2012-12-19,41,37,32,34,32,29,92,79,65,30.11,29.98,29.75,10,6,2,13,3,16,0.00,7,,27
2012-12-20,49,43,36,46,36,32,93,82,70,29.93,29.43,29.08,10,7,2,26,15,35,0.81,8,Rain,115
2012-12-21,39,36,33,34,29,23,89,77,64,30.06,29.60,29.20,10,5,0,29,15,47,0.21,8,Fog-Rain-Snow,331
2012-12-22,35,31,26,25,23,20,75,68,61,30.15,30.09,30.00,10,10,10,20,10,26,0.05,4,,268
2012-12-23,35,29,22,25,21,18,88,74,59,30.07,29.99,29.89,10,10,5,12,3,15,0.00,5,,16
2012-12-24,33,29,24,22,20,17,75,69,63,30.08,29.95,29.86,10,10,10,14,6,20,0.00,5,,46
2012-12-25,32,26,20,21,18,16,88,71,54,30.36,30.28,30.10,10,10,10,14,3,17,0.00,6,,59
2012-12-26,31,28,24,21,19,15,81,72,63,30.30,30.08,29.98,10,8,2,20,10,30,T,8,Snow,24
2012-12-27,33,29,24,20,18,14,75,63,51,30.19,30.14,30.06,10,10,10,13,6,17,0.00,7,,354
2012-12-28,31,29,26,27,24,18,85,77,68,30.18,30.06,29.93,10,5,1,10,6,13,0.01,8,Snow,85
2012-12-29,34,30,25,27,24,21,92,79,66,30.12,29.94,29.86,10,5,1,9,5,14,0.01,8,Snow,41
2012-12-30,34,30,25,27,22,18,81,75,68,30.31,30.22,30.09,10,9,6,21,12,24,T,7,Snow,237
2012-12-31,38,33,27,28,23,16,81,70,58,30.10,30.02,29.95,10,10,8,31,13,38,0.00,6,,274